Terminal Aerodrome Forecast
Issued by NWS Cleveland, OH

Home | Current Version | Previous Version | Graphics & Text | Print | Product List | Glossary On
Versions: 1 2 3 4 5 6 7 8 9 10 11 12 13 14 15 16 17 18 19 20 21 22 23
426
FTUS41 KCLE 202238 AAA
TAFMFD
TAF AMD
KMFD 202238Z 2023/2118 16008KT P6SM OVC025
      TEMPO 2100/2104 5SM -SHRA
     FM210500 35005KT 4SM BR OVC008
     FM211200 35008KT 6SM BR OVC012
     FM211500 33008KT P6SM OVC015=

USA.gov is the U.S. government's official web portal to all federal, state and local government web resources and services.